sensor_id;sensor_type;location;lat;lon;timestamp;P1;durP1;ratioP1;P2;durP2;ratioP2
73120;SDS011;61307;49.628;-1.624;2023-03-23T00:00:09;11.00;;;2.50;;
73120;SDS011;61307;49.628;-1.624;2023-03-23T00:02:39;12.57;;;2.88;;
73120;SDS011;61307;49.628;-1.624;2023-03-23T00:05:06;9.50;;;3.05;;
73120;SDS011;61307;49.628;-1.624;2023-03-23T00:07:34;9.63;;;2.83;;
73120;SDS011;61307;49.628;-1.624;2023-03-23T00:10:03;9.95;;;2.80;;
73120;SDS011;61307;49.628;-1.624;2023-03-23T00:12:32;9.93;;;2.58;;
73120;SDS011;61307;49.628;-1.624;2023-03-23T00:14:59;10.27;;;2.72;;
73120;SDS011;61307;49.628;-1.624;2023-03-23T00:17:27;8.23;;;2.90;;
73120;SDS011;61307;49.628;-1.624;2023-03-23T00:19:55;13.52;;;3.85;;
73120;SDS011;61307;49.628;-1.624;2023-03-23T00:22:22;11.57;;;3.17;;
73120;SDS011;61307;49.628;-1.624;2023-03-23T00:24:50;13.88;;;3.33;;
73120;SDS011;61307;49.628;-1.624;2023-03-23T00:27:19;9.68;;;2.70;;
73120;SDS011;61307;49.628;-1.624;2023-03-23T00:29:48;10.52;;;2.58;;
73120;SDS011;61307;49.628;-1.624;2023-03-23T00:32:18;9.13;;;2.63;;
73120;SDS011;61307;49.628;-1.624;2023-03-23T00:34:46;12.82;;;3.38;;
73120;SDS011;61307;49.628;-1.624;2023-03-23T00:37:14;11.00;;;3.03;;
73120;SDS011;61307;49.628;-1.624;2023-03-23T00:39:42;11.80;;;3.35;;
73120;SDS011;61307;49.628;-1.624;2023-03-23T00:42:11;12.20;;;3.22;;
73120;SDS011;61307;49.628;-1.624;2023-03-23T00:44:40;11.85;;;2.72;;
73120;SDS011;61307;49.628;-1.624;2023-03-23T00:47:09;9.45;;;3.15;;
73120;SDS011;61307;49.628;-1.624;2023-03-23T00:49:38;14.57;;;3.30;;
73120;SDS011;61307;49.628;-1.624;2023-03-23T00:52:06;10.43;;;2.88;;
73120;SDS011;61307;49.628;-1.624;2023-03-23T00:54:33;10.15;;;2.75;;
73120;SDS011;61307;49.628;-1.624;2023-03-23T00:57:04;8.80;;;2.70;;
73120;SDS011;61307;49.628;-1.624;2023-03-23T00:59:32;15.93;;;3.60;;
73120;SDS011;61307;49.628;-1.624;2023-03-23T01:02:01;11.98;;;3.60;;
73120;SDS011;61307;49.628;-1.624;2023-03-23T01:04:28;12.13;;;2.80;;
73120;SDS011;61307;49.628;-1.624;2023-03-23T01:06:56;12.60;;;3.35;;
73120;SDS011;61307;49.628;-1.624;2023-03-23T01:09:27;8.57;;;3.08;;
73120;SDS011;61307;49.628;-1.624;2023-03-23T01:11:54;10.95;;;2.92;;
73120;SDS011;61307;49.628;-1.624;2023-03-23T01:14:23;10.93;;;2.75;;
73120;SDS011;61307;49.628;-1.624;2023-03-23T01:16:50;10.77;;;2.63;;
73120;SDS011;61307;49.628;-1.624;2023-03-23T01:19:19;8.70;;;2.50;;
73120;SDS011;61307;49.628;-1.624;2023-03-23T01:21:46;12.77;;;3.47;;
73120;SDS011;61307;49.628;-1.624;2023-03-23T01:24:13;13.27;;;3.03;;
73120;SDS011;61307;49.628;-1.624;2023-03-23T01:26:41;9.93;;;2.50;;
73120;SDS011;61307;49.628;-1.624;2023-03-23T01:29:08;9.68;;;2.50;;
73120;SDS011;61307;49.628;-1.624;2023-03-23T01:31:35;7.78;;;2.50;;
73120;SDS011;61307;49.628;-1.624;2023-03-23T01:34:03;11.35;;;2.90;;
73120;SDS011;61307;49.628;-1.624;2023-03-23T01:36:31;6.82;;;2.50;;
73120;SDS011;61307;49.628;-1.624;2023-03-23T01:38:59;8.35;;;2.42;;
73120;SDS011;61307;49.628;-1.624;2023-03-23T01:41:28;8.90;;;2.45;;
73120;SDS011;61307;49.628;-1.624;2023-03-23T01:43:59;11.13;;;2.65;;
73120;SDS011;61307;49.628;-1.624;2023-03-23T01:46:29;9.45;;;2.58;;
73120;SDS011;61307;49.628;-1.624;2023-03-23T01:48:58;8.75;;;2.30;;
73120;SDS011;61307;49.628;-1.624;2023-03-23T01:51:32;9.05;;;2.92;;
73120;SDS011;61307;49.628;-1.624;2023-03-23T01:54:04;14.23;;;2.60;;
73120;SDS011;61307;49.628;-1.624;2023-03-23T01:56:35;7.20;;;2.28;;
73120;SDS011;61307;49.628;-1.624;2023-03-23T01:59:10;12.25;;;2.60;;
73120;SDS011;61307;49.628;-1.624;2023-03-23T02:01:39;7.97;;;2.28;;
73120;SDS011;61307;49.628;-1.624;2023-03-23T02:04:10;7.85;;;2.22;;
73120;SDS011;61307;49.628;-1.624;2023-03-23T02:06:41;8.23;;;2.45;;
73120;SDS011;61307;49.628;-1.624;2023-03-23T02:09:09;12.55;;;2.72;;
73120;SDS011;61307;49.628;-1.624;2023-03-23T02:11:38;8.15;;;2.25;;
73120;SDS011;61307;49.628;-1.624;2023-03-23T02:14:06;9.35;;;2.58;;
73120;SDS011;61307;49.628;-1.624;2023-03-23T02:16:36;6.90;;;2.13;;
73120;SDS011;61307;49.628;-1.624;2023-03-23T02:19:18;7.22;;;2.40;;
73120;SDS011;61307;49.628;-1.624;2023-03-23T02:22:09;15.05;;;3.50;;
73120;SDS011;61307;49.628;-1.624;2023-03-23T02:24:55;9.98;;;2.58;;
73120;SDS011;61307;49.628;-1.624;2023-03-23T02:30:48;7.57;;;2.20;;
73120;SDS011;61307;49.628;-1.624;2023-03-23T02:36:11;8.52;;;2.42;;
73120;SDS011;61307;49.628;-1.624;2023-03-23T02:38:44;9.05;;;2.42;;
73120;SDS011;61307;49.628;-1.624;2023-03-23T02:41:17;8.57;;;2.40;;
73120;SDS011;61307;49.628;-1.624;2023-03-23T02:43:48;10.70;;;2.30;;
73120;SDS011;61307;49.628;-1.624;2023-03-23T02:46:17;6.28;;;2.13;;
73120;SDS011;61307;49.628;-1.624;2023-03-23T02:48:50;10.63;;;2.40;;
73120;SDS011;61307;49.628;-1.624;2023-03-23T02:51:21;9.35;;;2.22;;
73120;SDS011;61307;49.628;-1.624;2023-03-23T02:53:51;9.15;;;2.40;;
73120;SDS011;61307;49.628;-1.624;2023-03-23T02:56:21;7.28;;;2.17;;
73120;SDS011;61307;49.628;-1.624;2023-03-23T02:58:54;7.45;;;2.47;;
73120;SDS011;61307;49.628;-1.624;2023-03-23T03:04:27;7.30;;;2.53;;
73120;SDS011;61307;49.628;-1.624;2023-03-23T03:07:01;9.18;;;2.38;;
73120;SDS011;61307;49.628;-1.624;2023-03-23T03:09:46;10.40;;;2.85;;
73120;SDS011;61307;49.628;-1.624;2023-03-23T03:12:20;8.70;;;2.38;;
73120;SDS011;61307;49.628;-1.624;2023-03-23T03:14:56;12.00;;;2.70;;
73120;SDS011;61307;49.628;-1.624;2023-03-23T03:17:30;11.48;;;2.50;;
73120;SDS011;61307;49.628;-1.624;2023-03-23T03:20:03;9.82;;;2.65;;
73120;SDS011;61307;49.628;-1.624;2023-03-23T03:22:34;7.68;;;2.75;;
73120;SDS011;61307;49.628;-1.624;2023-03-23T03:25:07;8.60;;;2.85;;
73120;SDS011;61307;49.628;-1.624;2023-03-23T03:27:38;10.20;;;2.65;;
73120;SDS011;61307;49.628;-1.624;2023-03-23T03:30:08;8.70;;;2.63;;
73120;SDS011;61307;49.628;-1.624;2023-03-23T03:32:41;10.27;;;2.65;;
73120;SDS011;61307;49.628;-1.624;2023-03-23T03:35:15;9.82;;;2.60;;
73120;SDS011;61307;49.628;-1.624;2023-03-23T03:37:43;10.90;;;2.72;;
73120;SDS011;61307;49.628;-1.624;2023-03-23T03:40:12;9.63;;;2.83;;
73120;SDS011;61307;49.628;-1.624;2023-03-23T03:42:42;10.75;;;3.22;;
73120;SDS011;61307;49.628;-1.624;2023-03-23T03:45:11;11.05;;;2.83;;
73120;SDS011;61307;49.628;-1.624;2023-03-23T03:47:40;9.70;;;2.42;;
73120;SDS011;61307;49.628;-1.624;2023-03-23T03:50:08;12.02;;;3.10;;
73120;SDS011;61307;49.628;-1.624;2023-03-23T03:52:37;9.45;;;2.95;;
73120;SDS011;61307;49.628;-1.624;2023-03-23T03:55:05;6.25;;;2.47;;
73120;SDS011;61307;49.628;-1.624;2023-03-23T03:57:35;9.52;;;3.38;;
73120;SDS011;61307;49.628;-1.624;2023-03-23T04:00:02;8.98;;;2.55;;
73120;SDS011;61307;49.628;-1.624;2023-03-23T04:02:40;7.75;;;3.20;;
73120;SDS011;61307;49.628;-1.624;2023-03-23T04:05:09;11.25;;;2.80;;
73120;SDS011;61307;49.628;-1.624;2023-03-23T04:07:38;8.93;;;2.78;;
73120;SDS011;61307;49.628;-1.624;2023-03-23T04:10:09;10.85;;;3.00;;
73120;SDS011;61307;49.628;-1.624;2023-03-23T04:12:39;9.15;;;2.72;;
73120;SDS011;61307;49.628;-1.624;2023-03-23T04:15:06;11.18;;;2.63;;
73120;SDS011;61307;49.628;-1.624;2023-03-23T04:17:34;9.93;;;2.78;;
73120;SDS011;61307;49.628;-1.624;2023-03-23T04:20:03;10.32;;;3.00;;
73120;SDS011;61307;49.628;-1.624;2023-03-23T04:22:39;10.30;;;2.55;;
73120;SDS011;61307;49.628;-1.624;2023-03-23T04:25:09;9.32;;;2.60;;
73120;SDS011;61307;49.628;-1.624;2023-03-23T04:27:37;10.80;;;2.88;;
73120;SDS011;61307;49.628;-1.624;2023-03-23T04:30:08;11.85;;;2.45;;
73120;SDS011;61307;49.628;-1.624;2023-03-23T04:32:37;11.27;;;2.55;;
73120;SDS011;61307;49.628;-1.624;2023-03-23T04:35:07;11.40;;;3.10;;
73120;SDS011;61307;49.628;-1.624;2023-03-23T04:37:36;9.57;;;3.03;;
73120;SDS011;61307;49.628;-1.624;2023-03-23T04:40:06;11.55;;;3.00;;
73120;SDS011;61307;49.628;-1.624;2023-03-23T04:42:37;8.55;;;2.78;;
73120;SDS011;61307;49.628;-1.624;2023-03-23T04:45:05;12.57;;;3.28;;
73120;SDS011;61307;49.628;-1.624;2023-03-23T04:47:34;13.63;;;2.80;;
73120;SDS011;61307;49.628;-1.624;2023-03-23T04:50:06;12.45;;;3.20;;
73120;SDS011;61307;49.628;-1.624;2023-03-23T04:52:34;11.15;;;3.03;;
73120;SDS011;61307;49.628;-1.624;2023-03-23T04:55:07;13.23;;;3.05;;
73120;SDS011;61307;49.628;-1.624;2023-03-23T04:57:35;8.77;;;2.30;;
73120;SDS011;61307;49.628;-1.624;2023-03-23T05:00:03;13.00;;;2.72;;
73120;SDS011;61307;49.628;-1.624;2023-03-23T05:02:34;10.52;;;2.60;;
73120;SDS011;61307;49.628;-1.624;2023-03-23T05:05:02;13.65;;;2.67;;
73120;SDS011;61307;49.628;-1.624;2023-03-23T05:07:29;13.68;;;3.10;;
73120;SDS011;61307;49.628;-1.624;2023-03-23T05:09:57;10.25;;;2.95;;
73120;SDS011;61307;49.628;-1.624;2023-03-23T05:12:25;10.63;;;2.47;;
73120;SDS011;61307;49.628;-1.624;2023-03-23T05:14:53;13.32;;;2.42;;
73120;SDS011;61307;49.628;-1.624;2023-03-23T05:17:20;8.25;;;2.30;;
73120;SDS011;61307;49.628;-1.624;2023-03-23T05:19:49;8.23;;;2.75;;
73120;SDS011;61307;49.628;-1.624;2023-03-23T05:22:16;12.00;;;2.70;;
73120;SDS011;61307;49.628;-1.624;2023-03-23T05:24:46;8.43;;;2.60;;
73120;SDS011;61307;49.628;-1.624;2023-03-23T05:27:13;9.98;;;2.53;;
73120;SDS011;61307;49.628;-1.624;2023-03-23T05:29:45;11.30;;;2.47;;
73120;SDS011;61307;49.628;-1.624;2023-03-23T05:32:13;10.98;;;2.42;;
73120;SDS011;61307;49.628;-1.624;2023-03-23T05:34:41;9.88;;;2.70;;
73120;SDS011;61307;49.628;-1.624;2023-03-23T05:37:08;7.45;;;2.25;;
73120;SDS011;61307;49.628;-1.624;2023-03-23T05:39:38;8.65;;;2.33;;
73120;SDS011;61307;49.628;-1.624;2023-03-23T05:42:05;6.53;;;2.00;;
73120;SDS011;61307;49.628;-1.624;2023-03-23T05:44:33;10.77;;;2.53;;
73120;SDS011;61307;49.628;-1.624;2023-03-23T05:47:01;7.25;;;2.40;;
73120;SDS011;61307;49.628;-1.624;2023-03-23T05:49:30;8.57;;;2.60;;
73120;SDS011;61307;49.628;-1.624;2023-03-23T05:51:57;7.22;;;2.40;;
73120;SDS011;61307;49.628;-1.624;2023-03-23T05:54:24;7.70;;;2.40;;
73120;SDS011;61307;49.628;-1.624;2023-03-23T05:56:52;9.75;;;2.28;;
73120;SDS011;61307;49.628;-1.624;2023-03-23T05:59:19;9.30;;;2.28;;
73120;SDS011;61307;49.628;-1.624;2023-03-23T06:01:46;9.27;;;2.58;;
73120;SDS011;61307;49.628;-1.624;2023-03-23T06:04:17;10.85;;;2.42;;
73120;SDS011;61307;49.628;-1.624;2023-03-23T06:06:44;7.15;;;2.65;;
73120;SDS011;61307;49.628;-1.624;2023-03-23T06:09:11;9.20;;;2.30;;
73120;SDS011;61307;49.628;-1.624;2023-03-23T06:11:38;7.38;;;2.30;;
73120;SDS011;61307;49.628;-1.624;2023-03-23T06:14:06;7.43;;;2.13;;
73120;SDS011;61307;49.628;-1.624;2023-03-23T06:16:33;9.45;;;2.72;;
73120;SDS011;61307;49.628;-1.624;2023-03-23T06:19:00;5.07;;;2.00;;
73120;SDS011;61307;49.628;-1.624;2023-03-23T06:21:30;11.05;;;3.00;;
73120;SDS011;61307;49.628;-1.624;2023-03-23T06:23:58;7.82;;;2.30;;
73120;SDS011;61307;49.628;-1.624;2023-03-23T06:26:27;10.52;;;2.60;;
73120;SDS011;61307;49.628;-1.624;2023-03-23T06:28:58;12.45;;;2.38;;
73120;SDS011;61307;49.628;-1.624;2023-03-23T06:31:26;8.57;;;2.20;;
73120;SDS011;61307;49.628;-1.624;2023-03-23T06:33:53;5.47;;;2.20;;
73120;SDS011;61307;49.628;-1.624;2023-03-23T06:36:21;7.90;;;2.20;;
73120;SDS011;61307;49.628;-1.624;2023-03-23T06:38:50;10.40;;;2.30;;
73120;SDS011;61307;49.628;-1.624;2023-03-23T06:41:17;8.75;;;2.50;;
73120;SDS011;61307;49.628;-1.624;2023-03-23T06:43:44;9.18;;;2.30;;
73120;SDS011;61307;49.628;-1.624;2023-03-23T06:46:11;7.93;;;2.40;;
73120;SDS011;61307;49.628;-1.624;2023-03-23T06:48:40;9.05;;;2.42;;
73120;SDS011;61307;49.628;-1.624;2023-03-23T06:51:07;10.15;;;2.30;;
73120;SDS011;61307;49.628;-1.624;2023-03-23T06:53:34;6.60;;;2.35;;
73120;SDS011;61307;49.628;-1.624;2023-03-23T06:56:03;8.73;;;2.15;;
73120;SDS011;61307;49.628;-1.624;2023-03-23T06:58:32;10.80;;;2.60;;
73120;SDS011;61307;49.628;-1.624;2023-03-23T07:00:59;9.80;;;2.50;;
73120;SDS011;61307;49.628;-1.624;2023-03-23T07:03:27;7.10;;;2.17;;
73120;SDS011;61307;49.628;-1.624;2023-03-23T07:05:56;7.20;;;2.03;;
73120;SDS011;61307;49.628;-1.624;2023-03-23T07:08:24;9.68;;;2.80;;
73120;SDS011;61307;49.628;-1.624;2023-03-23T07:10:51;8.60;;;2.13;;
73120;SDS011;61307;49.628;-1.624;2023-03-23T07:13:21;8.65;;;2.75;;
73120;SDS011;61307;49.628;-1.624;2023-03-23T07:15:48;6.80;;;2.22;;
73120;SDS011;61307;49.628;-1.624;2023-03-23T07:18:16;9.80;;;2.55;;
73120;SDS011;61307;49.628;-1.624;2023-03-23T07:20:46;8.35;;;2.38;;
73120;SDS011;61307;49.628;-1.624;2023-03-23T07:23:14;8.38;;;2.30;;
73120;SDS011;61307;49.628;-1.624;2023-03-23T07:25:42;11.27;;;2.58;;
73120;SDS011;61307;49.628;-1.624;2023-03-23T07:28:10;8.98;;;2.58;;
73120;SDS011;61307;49.628;-1.624;2023-03-23T07:30:39;8.40;;;2.38;;
73120;SDS011;61307;49.628;-1.624;2023-03-23T07:33:06;10.55;;;3.17;;
73120;SDS011;61307;49.628;-1.624;2023-03-23T07:35:34;10.52;;;2.53;;
73120;SDS011;61307;49.628;-1.624;2023-03-23T07:38:04;7.53;;;2.20;;
73120;SDS011;61307;49.628;-1.624;2023-03-23T07:40:32;8.68;;;2.40;;
73120;SDS011;61307;49.628;-1.624;2023-03-23T07:43:00;7.03;;;2.20;;
73120;SDS011;61307;49.628;-1.624;2023-03-23T07:45:28;7.35;;;2.53;;
73120;SDS011;61307;49.628;-1.624;2023-03-23T07:47:58;13.23;;;2.80;;
73120;SDS011;61307;49.628;-1.624;2023-03-23T07:50:26;12.88;;;3.08;;
73120;SDS011;61307;49.628;-1.624;2023-03-23T07:52:54;9.93;;;3.10;;
73120;SDS011;61307;49.628;-1.624;2023-03-23T07:55:23;13.20;;;2.95;;
73120;SDS011;61307;49.628;-1.624;2023-03-23T07:57:50;9.70;;;2.78;;
73120;SDS011;61307;49.628;-1.624;2023-03-23T08:00:19;10.68;;;2.60;;
73120;SDS011;61307;49.628;-1.624;2023-03-23T08:02:49;7.55;;;2.22;;
73120;SDS011;61307;49.628;-1.624;2023-03-23T08:05:19;9.13;;;2.53;;
73120;SDS011;61307;49.628;-1.624;2023-03-23T08:07:47;8.38;;;2.58;;
73120;SDS011;61307;49.628;-1.624;2023-03-23T08:10:17;6.80;;;2.53;;
73120;SDS011;61307;49.628;-1.624;2023-03-23T08:12:50;9.98;;;2.53;;
73120;SDS011;61307;49.628;-1.624;2023-03-23T08:15:18;9.77;;;3.33;;
73120;SDS011;61307;49.628;-1.624;2023-03-23T08:17:46;12.23;;;2.63;;
73120;SDS011;61307;49.628;-1.624;2023-03-23T08:20:14;10.23;;;2.45;;
73120;SDS011;61307;49.628;-1.624;2023-03-23T08:22:44;13.15;;;3.22;;
73120;SDS011;61307;49.628;-1.624;2023-03-23T08:25:13;8.23;;;2.67;;
73120;SDS011;61307;49.628;-1.624;2023-03-23T08:27:42;15.88;;;2.72;;
73120;SDS011;61307;49.628;-1.624;2023-03-23T08:30:10;12.15;;;2.95;;
73120;SDS011;61307;49.628;-1.624;2023-03-23T08:32:39;12.32;;;2.90;;
73120;SDS011;61307;49.628;-1.624;2023-03-23T08:35:06;13.88;;;2.92;;
73120;SDS011;61307;49.628;-1.624;2023-03-23T08:37:34;11.90;;;3.15;;
73120;SDS011;61307;49.628;-1.624;2023-03-23T08:40:03;10.70;;;3.13;;
73120;SDS011;61307;49.628;-1.624;2023-03-23T08:42:34;9.20;;;2.42;;
73120;SDS011;61307;49.628;-1.624;2023-03-23T08:45:02;8.52;;;2.58;;
73120;SDS011;61307;49.628;-1.624;2023-03-23T08:47:30;11.80;;;3.28;;
73120;SDS011;61307;49.628;-1.624;2023-03-23T08:49:57;10.15;;;3.05;;
73120;SDS011;61307;49.628;-1.624;2023-03-23T08:52:25;10.90;;;3.00;;
73120;SDS011;61307;49.628;-1.624;2023-03-23T08:54:53;10.15;;;3.20;;
73120;SDS011;61307;49.628;-1.624;2023-03-23T08:57:21;14.13;;;3.70;;
73120;SDS011;61307;49.628;-1.624;2023-03-23T08:59:49;11.23;;;2.88;;
73120;SDS011;61307;49.628;-1.624;2023-03-23T09:02:16;11.38;;;3.08;;
73120;SDS011;61307;49.628;-1.624;2023-03-23T09:04:43;11.68;;;3.13;;
73120;SDS011;61307;49.628;-1.624;2023-03-23T09:07:10;17.00;;;3.55;;
73120;SDS011;61307;49.628;-1.624;2023-03-23T09:09:40;11.75;;;3.33;;
73120;SDS011;61307;49.628;-1.624;2023-03-23T09:12:08;11.10;;;3.13;;
73120;SDS011;61307;49.628;-1.624;2023-03-23T09:14:37;14.18;;;3.67;;
73120;SDS011;61307;49.628;-1.624;2023-03-23T09:17:05;14.32;;;3.47;;
73120;SDS011;61307;49.628;-1.624;2023-03-23T09:19:33;12.93;;;3.35;;
73120;SDS011;61307;49.628;-1.624;2023-03-23T09:22:01;11.60;;;3.33;;
73120;SDS011;61307;49.628;-1.624;2023-03-23T09:24:29;15.15;;;3.45;;
73120;SDS011;61307;49.628;-1.624;2023-03-23T09:26:56;13.32;;;3.65;;
73120;SDS011;61307;49.628;-1.624;2023-03-23T09:29:24;13.80;;;3.30;;
73120;SDS011;61307;49.628;-1.624;2023-03-23T09:31:53;15.55;;;3.20;;
73120;SDS011;61307;49.628;-1.624;2023-03-23T09:34:21;15.95;;;3.63;;
73120;SDS011;61307;49.628;-1.624;2023-03-23T09:36:48;13.15;;;3.25;;
73120;SDS011;61307;49.628;-1.624;2023-03-23T09:39:17;15.35;;;3.65;;
73120;SDS011;61307;49.628;-1.624;2023-03-23T09:44:42;10.20;;;3.17;;
73120;SDS011;61307;49.628;-1.624;2023-03-23T09:47:19;13.52;;;3.75;;
73120;SDS011;61307;49.628;-1.624;2023-03-23T09:49:53;18.45;;;3.90;;
73120;SDS011;61307;49.628;-1.624;2023-03-23T09:52:26;15.57;;;3.53;;
73120;SDS011;61307;49.628;-1.624;2023-03-23T09:55:04;17.27;;;3.33;;
73120;SDS011;61307;49.628;-1.624;2023-03-23T09:57:35;13.07;;;3.28;;
73120;SDS011;61307;49.628;-1.624;2023-03-23T10:00:09;17.35;;;4.47;;
73120;SDS011;61307;49.628;-1.624;2023-03-23T10:02:44;11.65;;;3.85;;
73120;SDS011;61307;49.628;-1.624;2023-03-23T10:05:31;12.00;;;3.30;;
73120;SDS011;61307;49.628;-1.624;2023-03-23T10:08:01;12.35;;;3.28;;
73120;SDS011;61307;49.628;-1.624;2023-03-23T10:10:39;12.02;;;3.15;;
73120;SDS011;61307;49.628;-1.624;2023-03-23T10:13:14;12.38;;;3.35;;
73120;SDS011;61307;49.628;-1.624;2023-03-23T10:15:48;14.43;;;3.70;;
73120;SDS011;61307;49.628;-1.624;2023-03-23T10:18:20;13.80;;;3.83;;
73120;SDS011;61307;49.628;-1.624;2023-03-23T10:20:53;11.63;;;3.20;;
73120;SDS011;61307;49.628;-1.624;2023-03-23T10:23:35;14.32;;;3.65;;
73120;SDS011;61307;49.628;-1.624;2023-03-23T10:26:12;11.98;;;3.13;;
73120;SDS011;61307;49.628;-1.624;2023-03-23T10:28:50;13.15;;;3.92;;
73120;SDS011;61307;49.628;-1.624;2023-03-23T10:31:22;11.00;;;3.97;;
73120;SDS011;61307;49.628;-1.624;2023-03-23T10:33:54;15.82;;;4.15;;
73120;SDS011;61307;49.628;-1.624;2023-03-23T10:36:26;13.63;;;3.42;;
73120;SDS011;61307;49.628;-1.624;2023-03-23T10:38:58;13.15;;;3.88;;
73120;SDS011;61307;49.628;-1.624;2023-03-23T10:41:29;15.25;;;3.90;;
73120;SDS011;61307;49.628;-1.624;2023-03-23T10:43:57;11.57;;;3.38;;
73120;SDS011;61307;49.628;-1.624;2023-03-23T10:46:38;13.55;;;3.72;;
73120;SDS011;61307;49.628;-1.624;2023-03-23T10:49:15;12.57;;;3.65;;
73120;SDS011;61307;49.628;-1.624;2023-03-23T10:51:51;16.50;;;4.18;;
73120;SDS011;61307;49.628;-1.624;2023-03-23T10:54:26;18.50;;;3.63;;
73120;SDS011;61307;49.628;-1.624;2023-03-23T10:56:58;14.43;;;3.40;;
73120;SDS011;61307;49.628;-1.624;2023-03-23T10:59:27;11.80;;;3.13;;
73120;SDS011;61307;49.628;-1.624;2023-03-23T11:01:58;15.45;;;4.07;;
73120;SDS011;61307;49.628;-1.624;2023-03-23T11:04:30;18.30;;;3.92;;
73120;SDS011;61307;49.628;-1.624;2023-03-23T11:07:00;15.00;;;3.75;;
73120;SDS011;61307;49.628;-1.624;2023-03-23T11:09:34;11.63;;;3.20;;
73120;SDS011;61307;49.628;-1.624;2023-03-23T11:12:03;13.00;;;3.40;;
73120;SDS011;61307;49.628;-1.624;2023-03-23T11:14:31;13.30;;;3.35;;
73120;SDS011;61307;49.628;-1.624;2023-03-23T11:17:03;22.73;;;4.63;;
73120;SDS011;61307;49.628;-1.624;2023-03-23T11:19:33;16.13;;;3.85;;
73120;SDS011;61307;49.628;-1.624;2023-03-23T11:22:06;15.63;;;3.95;;
73120;SDS011;61307;49.628;-1.624;2023-03-23T11:24:35;11.07;;;3.20;;
73120;SDS011;61307;49.628;-1.624;2023-03-23T11:27:15;16.63;;;4.05;;
73120;SDS011;61307;49.628;-1.624;2023-03-23T11:29:44;14.02;;;3.55;;
73120;SDS011;61307;49.628;-1.624;2023-03-23T11:32:22;15.48;;;4.15;;
73120;SDS011;61307;49.628;-1.624;2023-03-23T11:34:55;13.73;;;3.83;;
73120;SDS011;61307;49.628;-1.624;2023-03-23T11:37:27;12.38;;;3.45;;
73120;SDS011;61307;49.628;-1.624;2023-03-23T11:39:58;15.30;;;3.30;;
73120;SDS011;61307;49.628;-1.624;2023-03-23T11:42:34;13.13;;;4.13;;
73120;SDS011;61307;49.628;-1.624;2023-03-23T11:47:56;26.20;;;9.32;;
73120;SDS011;61307;49.628;-1.624;2023-03-23T11:50:29;21.92;;;8.25;;
73120;SDS011;61307;49.628;-1.624;2023-03-23T11:53:00;17.75;;;7.32;;
73120;SDS011;61307;49.628;-1.624;2023-03-23T11:55:35;26.02;;;7.05;;
73120;SDS011;61307;49.628;-1.624;2023-03-23T11:58:18;18.38;;;6.00;;
73120;SDS011;61307;49.628;-1.624;2023-03-23T12:00:48;17.65;;;5.85;;
73120;SDS011;61307;49.628;-1.624;2023-03-23T12:03:39;16.27;;;5.78;;
73120;SDS011;61307;49.628;-1.624;2023-03-23T12:06:19;18.13;;;7.38;;
73120;SDS011;61307;49.628;-1.624;2023-03-23T12:08:58;28.00;;;12.32;;
73120;SDS011;61307;49.628;-1.624;2023-03-23T12:11:33;34.60;;;14.38;;
73120;SDS011;61307;49.628;-1.624;2023-03-23T12:14:12;31.42;;;16.20;;
73120;SDS011;61307;49.628;-1.624;2023-03-23T12:16:50;36.60;;;17.42;;
73120;SDS011;61307;49.628;-1.624;2023-03-23T12:19:30;32.83;;;16.80;;
73120;SDS011;61307;49.628;-1.624;2023-03-23T12:22:05;39.20;;;16.92;;
73120;SDS011;61307;49.628;-1.624;2023-03-23T12:24:45;30.42;;;14.70;;
73120;SDS011;61307;49.628;-1.624;2023-03-23T12:27:22;34.65;;;13.80;;
73120;SDS011;61307;49.628;-1.624;2023-03-23T12:29:59;35.03;;;17.27;;
73120;SDS011;61307;49.628;-1.624;2023-03-23T12:32:48;45.67;;;22.45;;
73120;SDS011;61307;49.628;-1.624;2023-03-23T12:35:35;42.40;;;23.52;;
73120;SDS011;61307;49.628;-1.624;2023-03-23T12:38:20;51.72;;;24.27;;
73120;SDS011;61307;49.628;-1.624;2023-03-23T12:41:01;39.40;;;19.80;;
73120;SDS011;61307;49.628;-1.624;2023-03-23T12:43:40;34.30;;;18.02;;
73120;SDS011;61307;49.628;-1.624;2023-03-23T12:46:21;39.33;;;18.67;;
73120;SDS011;61307;49.628;-1.624;2023-03-23T12:49:07;36.00;;;18.25;;
73120;SDS011;61307;49.628;-1.624;2023-03-23T12:51:39;33.25;;;14.98;;
73120;SDS011;61307;49.628;-1.624;2023-03-23T12:54:12;30.67;;;14.65;;
73120;SDS011;61307;49.628;-1.624;2023-03-23T12:56:47;30.33;;;11.32;;
73120;SDS011;61307;49.628;-1.624;2023-03-23T12:59:21;25.83;;;10.55;;
73120;SDS011;61307;49.628;-1.624;2023-03-23T13:01:55;18.00;;;9.00;;
73120;SDS011;61307;49.628;-1.624;2023-03-23T13:04:29;21.55;;;9.70;;
73120;SDS011;61307;49.628;-1.624;2023-03-23T13:06:59;20.75;;;8.50;;
73120;SDS011;61307;49.628;-1.624;2023-03-23T13:09:32;24.70;;;8.07;;
73120;SDS011;61307;49.628;-1.624;2023-03-23T13:12:14;22.60;;;7.53;;
73120;SDS011;61307;49.628;-1.624;2023-03-23T13:14:46;20.33;;;7.70;;
73120;SDS011;61307;49.628;-1.624;2023-03-23T13:17:23;18.73;;;6.57;;
73120;SDS011;61307;49.628;-1.624;2023-03-23T13:20:13;15.40;;;6.07;;
73120;SDS011;61307;49.628;-1.624;2023-03-23T13:23:02;23.63;;;6.22;;
73120;SDS011;61307;49.628;-1.624;2023-03-23T13:25:51;15.95;;;5.75;;
73120;SDS011;61307;49.628;-1.624;2023-03-23T13:28:24;13.88;;;5.07;;
73120;SDS011;61307;49.628;-1.624;2023-03-23T13:30:54;17.30;;;5.53;;
73120;SDS011;61307;49.628;-1.624;2023-03-23T13:33:29;18.30;;;5.68;;
73120;SDS011;61307;49.628;-1.624;2023-03-23T13:36:02;16.27;;;5.40;;
73120;SDS011;61307;49.628;-1.624;2023-03-23T13:38:44;15.70;;;6.10;;
73120;SDS011;61307;49.628;-1.624;2023-03-23T13:41:16;13.35;;;5.07;;
73120;SDS011;61307;49.628;-1.624;2023-03-23T13:43:47;10.77;;;4.82;;
73120;SDS011;61307;49.628;-1.624;2023-03-23T13:46:25;15.80;;;4.43;;
73120;SDS011;61307;49.628;-1.624;2023-03-23T13:49:13;12.07;;;4.43;;
73120;SDS011;61307;49.628;-1.624;2023-03-23T13:51:52;12.82;;;4.43;;
73120;SDS011;61307;49.628;-1.624;2023-03-23T13:54:39;12.82;;;4.63;;
73120;SDS011;61307;49.628;-1.624;2023-03-23T14:03:14;16.48;;;4.10;;
73120;SDS011;61307;49.628;-1.624;2023-03-23T14:05:45;9.65;;;4.05;;
73120;SDS011;61307;49.628;-1.624;2023-03-23T14:08:21;13.43;;;3.80;;
73120;SDS011;61307;49.628;-1.624;2023-03-23T14:10:51;13.45;;;4.07;;
73120;SDS011;61307;49.628;-1.624;2023-03-23T14:13:28;11.73;;;3.80;;
73120;SDS011;61307;49.628;-1.624;2023-03-23T14:15:58;14.57;;;3.60;;
73120;SDS011;61307;49.628;-1.624;2023-03-23T14:18:34;9.05;;;3.25;;
73120;SDS011;61307;49.628;-1.624;2023-03-23T14:21:04;12.27;;;4.18;;
73120;SDS011;61307;49.628;-1.624;2023-03-23T14:23:39;11.60;;;3.90;;
73120;SDS011;61307;49.628;-1.624;2023-03-23T14:26:11;7.50;;;3.00;;
73120;SDS011;61307;49.628;-1.624;2023-03-23T14:28:44;8.68;;;2.88;;
73120;SDS011;61307;49.628;-1.624;2023-03-23T14:31:17;11.82;;;3.60;;
73120;SDS011;61307;49.628;-1.624;2023-03-23T14:33:46;10.68;;;3.40;;
73120;SDS011;61307;49.628;-1.624;2023-03-23T14:36:15;8.77;;;3.50;;
73120;SDS011;61307;49.628;-1.624;2023-03-23T14:38:47;8.75;;;3.25;;
73120;SDS011;61307;49.628;-1.624;2023-03-23T14:41:15;11.00;;;3.45;;
73120;SDS011;61307;49.628;-1.624;2023-03-23T14:43:44;13.32;;;3.15;;
73120;SDS011;61307;49.628;-1.624;2023-03-23T14:46:12;12.63;;;3.40;;
73120;SDS011;61307;49.628;-1.624;2023-03-23T14:48:40;12.63;;;3.15;;
73120;SDS011;61307;49.628;-1.624;2023-03-23T14:51:08;9.07;;;2.72;;
73120;SDS011;61307;49.628;-1.624;2023-03-23T14:53:44;10.30;;;3.35;;
73120;SDS011;61307;49.628;-1.624;2023-03-23T14:56:14;11.10;;;3.72;;
73120;SDS011;61307;49.628;-1.624;2023-03-23T14:58:46;11.07;;;3.47;;
73120;SDS011;61307;49.628;-1.624;2023-03-23T15:01:18;12.85;;;3.33;;
73120;SDS011;61307;49.628;-1.624;2023-03-23T15:03:53;10.10;;;3.67;;
73120;SDS011;61307;49.628;-1.624;2023-03-23T15:06:25;12.80;;;3.45;;
73120;SDS011;61307;49.628;-1.624;2023-03-23T15:08:55;9.30;;;3.20;;